Terminal Aerodrome Forecast
Issued by NWS

Home | Current Version | Previous Version | Text Only | Print | Product List | Glossary On
Versions: 1 2 3 4 5 6 7 8 9 10 11 12 13 14 15 16 17 18 19 20
000
FTUS44 KLZK 221100
TAFPBF
TAF
KPBF 221121Z 2212/2312 18008G18KT P6SM VCSH BKN012 OVC025
      TEMPO 2214/2216 -DZ BKN008 OVC015
     FM221600 18008G18KT P6SM VCSH SCT008 OVC015
      TEMPO 2216/2220 BKN008
     FM230000 21006KT P6SM VCSH BKN025 BKN250
     FM230400 28007KT P6SM SCT025 BKN250=

USA.gov is the U.S. government's official web portal to all federal, state and local government web resources and services.